Time;durP1;ratioP1;P1;durP2;ratioP2;P2;SDS_P1;SDS_P2;PMS_P1;PMS_P2;Temp;Humidity;BMP_temperature;BMP_pressure;BME280_temperature;BME280_humidity;BME280_pressure;Samples;Min_cycle;Max_cycle;Signal;HPM_P1;HPM_P2
2022/03/29 00:01:16;;;;;;;15.53;12.27;;;;;;;5.71;100.00;100586.41;5072564;28;20257;-78
2022/03/29 00:03:41;;;;;;;20.57;15.80;;;;;;;5.74;100.00;100573.09;5073806;28;20167;-77
2022/03/29 00:06:07;;;;;;;22.30;15.93;;;;;;;5.73;100.00;100587.75;5073749;28;20208;-79
2022/03/29 00:08:32;;;;;;;24.60;16.13;;;;;;;5.72;100.00;100575.28;5073523;28;20270;-74
2022/03/29 00:10:57;;;;;;;27.20;16.33;;;;;;;5.76;100.00;100583.66;5073657;28;20175;-80
2022/03/29 00:13:23;;;;;;;22.30;15.23;;;;;;;5.72;100.00;100580.69;5073930;28;20264;-78
2022/03/29 00:15:48;;;;;;;30.23;17.20;;;;;;;5.73;100.00;100574.19;5072320;28;20177;-76
2022/03/29 00:18:13;;;;;;;25.73;16.00;;;;;;;5.74;100.00;100559.53;5073401;28;20182;-72
2022/03/29 00:20:39;;;;;;;21.67;14.40;;;;;;;5.73;100.00;100557.94;5073518;28;20200;-80
2022/03/29 00:23:05;;;;;;;17.03;10.83;;;;;;;5.63;100.00;100541.69;5073512;28;20189;-80
2022/03/29 00:25:31;;;;;;;25.17;16.80;;;;;;;5.61;100.00;100541.16;5073337;28;20232;-78
2022/03/29 00:27:57;;;;;;;19.83;13.73;;;;;;;5.60;100.00;100547.66;5073122;28;20202;-79
2022/03/29 00:30:22;;;;;;;29.27;15.90;;;;;;;5.54;100.00;100546.88;5073243;28;20637;-82
2022/03/29 00:32:48;;;;;;;24.17;15.60;;;;;;;5.51;100.00;100527.66;5073486;28;20174;-81
2022/03/29 00:35:13;;;;;;;25.00;15.73;;;;;;;5.52;100.00;100540.94;5073185;28;20182;-78
2022/03/29 00:37:40;;;;;;;25.03;17.23;;;;;;;5.51;100.00;100542.00;5072967;28;20695;-80
2022/03/29 00:40:07;;;;;;;29.83;18.30;;;;;;;5.53;100.00;100541.75;5073011;28;20645;-76
2022/03/29 00:42:32;;;;;;;27.87;17.63;;;;;;;5.52;100.00;100535.50;5072925;28;20266;-78
2022/03/29 00:44:58;;;;;;;24.87;16.20;;;;;;;5.58;100.00;100539.00;5073634;28;20261;-71
2022/03/29 00:47:24;;;;;;;23.67;14.17;;;;;;;5.59;100.00;100540.63;5074811;28;20216;-72
2022/03/29 00:49:49;;;;;;;19.87;12.67;;;;;;;5.53;100.00;100530.91;5074771;28;20546;-73
2022/03/29 00:52:16;;;;;;;26.37;16.90;;;;;;;5.49;100.00;100540.63;5073522;28;20178;-73
2022/03/29 00:54:42;;;;;;;18.93;12.73;;;;;;;5.48;100.00;100531.69;5073122;28;20232;-71
2022/03/29 00:57:07;;;;;;;26.57;16.90;;;;;;;5.46;100.00;100525.75;5072209;28;20174;-72
2022/03/29 00:59:33;;;;;;;21.13;15.10;;;;;;;5.53;100.00;100536.31;5072681;28;20518;-71
2022/03/29 01:01:58;;;;;;;26.70;16.73;;;;;;;5.51;100.00;100524.94;5072615;28;20175;-71
2022/03/29 01:04:28;;;;;;;20.47;13.87;;;;;;;5.47;100.00;100515.72;5072749;28;20208;-77
2022/03/29 01:06:58;;;;;;;26.10;17.53;;;;;;;5.42;100.00;100516.56;5072471;28;20190;-71
2022/03/29 01:09:25;;;;;;;28.67;16.37;;;;;;;5.40;100.00;100502.47;5072797;28;20166;-71
2022/03/29 01:11:51;;;;;;;23.57;13.00;;;;;;;5.37;100.00;100511.97;5072451;28;20171;-72
2022/03/29 01:14:16;;;;;;;26.43;16.20;;;;;;;5.40;100.00;100488.94;5072409;28;20185;-72
2022/03/29 01:19:27;;;;;;;39.70;19.40;;;;;;;5.40;100.00;100493.53;5072802;28;20220;-71
2022/03/29 01:21:57;;;;;;;35.40;20.80;;;;;;;5.39;100.00;100506.28;5071962;28;20167;-71
2022/03/29 01:24:25;;;;;;;39.90;19.77;;;;;;;5.34;100.00;100498.97;5072213;28;20171;-71
2022/03/29 01:26:52;;;;;;;22.90;14.80;;;;;;;5.31;100.00;100507.63;5072375;28;20566;-71
2022/03/29 01:29:17;;;;;;;33.67;18.23;;;;;;;5.31;100.00;100507.63;5072028;28;20231;-75
2022/03/29 01:31:43;;;;;;;27.77;18.23;;;;;;;5.28;100.00;100497.34;5070682;28;20167;-71
2022/03/29 01:34:09;;;;;;;43.70;21.20;;;;;;;5.23;100.00;100508.22;5072056;28;20528;-72
2022/03/29 01:36:34;;;;;;;41.43;21.13;;;;;;;5.26;100.00;100493.31;5071857;28;20630;-73
2022/03/29 01:39:00;;;;;;;36.20;17.67;;;;;;;5.27;100.00;100498.44;5071715;28;20178;-75
2022/03/29 01:41:27;;;;;;;33.40;18.57;;;;;;;5.30;100.00;100491.66;5072045;28;20559;-74
2022/03/29 01:43:53;;;;;;;44.23;20.90;;;;;;;5.27;100.00;100490.31;5071788;28;20167;-74
2022/03/29 01:46:18;;;;;;;33.03;17.03;;;;;;;5.24;100.00;100490.06;5071830;28;20209;-75
2022/03/29 01:48:44;;;;;;;36.23;21.43;;;;;;;5.23;100.00;100486.56;5071811;28;20178;-73
2022/03/29 01:51:10;;;;;;;38.60;19.37;;;;;;;5.23;100.00;100480.31;5071900;28;20537;-75
2022/03/29 01:53:37;;;;;;;37.30;17.90;;;;;;;5.25;100.00;100480.84;5071661;28;20177;-74
2022/03/29 01:56:02;;;;;;;41.63;22.63;;;;;;;5.27;100.00;100484.91;5071580;28;20637;-75
2022/03/29 01:58:31;;;;;;;42.43;20.53;;;;;;;5.28;100.00;100491.13;5071308;28;20244;-72
2022/03/29 02:00:56;;;;;;;45.30;22.03;;;;;;;5.28;100.00;100469.47;5070310;28;20261;-70
2022/03/29 02:03:22;;;;;;;41.90;21.60;;;;;;;5.28;100.00;100483.00;5071503;28;20258;-71
2022/03/29 02:05:48;;;;;;;40.37;21.67;;;;;;;5.30;100.00;100481.63;5071336;28;20171;-71
2022/03/29 02:08:14;;;;;;;48.77;23.67;;;;;;;5.33;100.00;100478.38;5070993;28;20166;-73
2022/03/29 02:10:40;;;;;;;41.27;17.20;;;;;;;5.29;100.00;100465.66;5070657;28;20197;-71
2022/03/29 02:13:09;;;;;;;28.90;15.00;;;;;;;5.25;100.00;100473.53;5071376;28;20759;-72
2022/03/29 02:15:39;;;;;;;28.37;15.23;;;;;;;5.24;100.00;100466.50;5071144;28;20167;-72
2022/03/29 02:18:05;;;;;;;38.17;19.47;;;;;;;5.20;100.00;100470.00;5071016;28;20174;-72
2022/03/29 02:20:31;;;;;;;37.40;18.67;;;;;;;5.19;100.00;100452.97;5070135;28;20521;-74
2022/03/29 02:23:07;;;;;;;28.60;15.23;;;;;;;5.23;100.00;100488.44;5070890;28;20182;-73
2022/03/29 02:25:32;;;;;;;38.03;19.33;;;;;;;5.23;100.00;100488.44;5070918;28;20268;-75
2022/03/29 02:27:58;;;;;;;38.50;19.60;;;;;;;5.26;100.00;100485.19;5070891;28;20216;-72
2022/03/29 02:30:24;;;;;;;42.97;22.73;;;;;;;5.27;100.00;100474.06;5069776;28;20175;-78
2022/03/29 02:32:49;;;;;;;40.67;20.57;;;;;;;5.28;100.00;100466.75;5070989;28;20254;-73
2022/03/29 02:35:14;;;;;;;43.40;21.03;;;;;;;5.27;100.00;100462.44;5070828;28;20178;-71
2022/03/29 02:37:40;;;;;;;37.27;19.33;;;;;;;5.32;100.00;100482.16;5070358;28;20183;-72
2022/03/29 02:40:07;;;;;;;41.13;19.10;;;;;;;5.35;100.00;100470.81;5070403;28;20195;-73
2022/03/29 02:42:40;;;;;;;43.23;19.70;;;;;;;5.28;100.00;100467.56;5070389;28;20177;-78
2022/03/29 02:45:07;;;;;;;33.20;20.90;;;;;;;5.30;100.00;100470.81;5070480;28;20188;-75
2022/03/29 02:47:33;;;;;;;21.63;14.00;;;;;;;5.34;100.00;100474.56;5070402;28;20229;-71
2022/03/29 02:49:58;;;;;;;26.20;16.07;;;;;;;5.33;100.00;100467.53;5068079;28;20542;-72
2022/03/29 02:52:23;;;;;;;33.20;19.77;;;;;;;5.37;100.00;100455.09;5069551;28;20257;-77
2022/03/29 02:54:48;;;;;;;38.13;19.77;;;;;;;5.41;100.00;100451.81;5070648;28;20183;-71
2022/03/29 02:57:14;;;;;;;36.83;21.07;;;;;;;5.31;100.00;100464.28;5070835;28;20194;-78
2022/03/29 02:59:39;;;;;;;38.67;20.87;;;;;;;5.38;100.00;100447.75;5070721;28;20178;-75
2022/03/29 03:02:05;;;;;;;42.87;19.50;;;;;;;5.31;100.00;100468.91;5070658;28;20269;-74
2022/03/29 03:04:31;;;;;;;32.00;18.73;;;;;;;5.30;100.00;100457.25;5071059;28;20209;-78
2022/03/29 03:06:56;;;;;;;44.57;20.70;;;;;;;5.37;100.00;100446.16;5070455;28;20679;-74
2022/03/29 03:09:21;;;;;;;36.33;20.53;;;;;;;5.43;100.00;100465.91;5071072;28;20185;-72
2022/03/29 03:11:47;;;;;;;48.50;22.57;;;;;;;5.30;100.00;100453.75;5070637;28;20274;-73
2022/03/29 03:14:12;;;;;;;22.40;12.93;;;;;;;5.39;100.00;100457.50;5070781;28;20681;-72
2022/03/29 03:16:37;;;;;;;39.43;21.53;;;;;;;5.35;100.00;100459.97;5070597;28;20617;-71
2022/03/29 03:19:03;;;;;;;45.07;21.87;;;;;;;5.43;100.00;100455.06;5070443;28;20691;-71
2022/03/29 03:21:28;;;;;;;31.47;15.93;;;;;;;5.43;100.00;100457.75;5071935;28;20182;-81
2022/03/29 03:23:54;;;;;;;48.37;21.37;;;;;;;5.40;100.00;100455.63;5074471;28;20174;-74
2022/03/29 03:26:19;;;;;;;45.43;20.80;;;;;;;5.37;100.00;100452.38;5074729;28;20660;-72
2022/03/29 03:28:44;;;;;;;34.97;21.77;;;;;;;5.36;100.00;100453.47;5074564;28;20178;-79
2022/03/29 03:31:10;;;;;;;23.97;14.13;;;;;;;5.43;100.00;100447.75;5074569;28;20167;-74
2022/03/29 03:33:35;;;;;;;35.50;18.73;;;;;;;5.38;100.00;100447.75;5074448;28;20167;-73
2022/03/29 03:36:00;;;;;;;28.93;18.27;;;;;;;5.42;100.00;100453.44;5074280;28;20194;-80
2022/03/29 03:38:26;;;;;;;31.60;18.10;;;;;;;5.40;100.00;100442.06;5074084;28;20184;-76
2022/03/29 03:40:51;;;;;;;34.87;20.23;;;;;;;5.46;100.00;100441.75;5074336;28;20536;-75
2022/03/29 03:43:16;;;;;;;37.63;20.27;;;;;;;5.45;100.00;100450.97;5074087;28;20175;-71
2022/03/29 03:45:42;;;;;;;31.10;19.47;;;;;;;5.47;100.00;100451.50;5074707;28;20564;-71
2022/03/29 03:48:07;;;;;;;34.07;19.87;;;;;;;5.45;100.00;100442.03;5073777;28;20221;-73
2022/03/29 03:50:33;;;;;;;45.40;20.67;;;;;;;5.45;100.00;100436.63;5073851;28;20664;-78
2022/03/29 03:53:00;;;;;;;36.13;19.57;;;;;;;5.48;100.00;100438.78;5074082;28;20181;-71
2022/03/29 03:55:26;;;;;;;42.57;20.93;;;;;;;5.45;100.00;100431.19;5073904;28;20197;-74
2022/03/29 03:57:51;;;;;;;39.43;19.83;;;;;;;5.43;100.00;100423.34;5073745;28;20641;-72
2022/03/29 04:00:17;;;;;;;39.83;21.17;;;;;;;5.44;100.00;100418.75;5073833;28;20634;-74
2022/03/29 04:02:42;;;;;;;38.13;20.07;;;;;;;5.46;100.00;100430.91;5073885;28;20581;-73
2022/03/29 04:05:13;;;;;;;38.20;20.17;;;;;;;5.45;100.00;100415.75;5073900;28;20688;-73
2022/03/29 04:07:39;;;;;;;35.63;20.07;;;;;;;5.46;100.00;100416.56;5073393;28;20530;-74
2022/03/29 04:10:06;;;;;;;40.03;20.50;;;;;;;5.43;100.00;100419.84;5073818;28;20197;-72
2022/03/29 04:12:31;;;;;;;41.63;21.00;;;;;;;5.42;100.00;100416.31;5073554;28;20637;-75
2022/03/29 04:14:57;;;;;;;36.33;20.80;;;;;;;5.40;100.00;100417.69;5073622;28;20250;-71
2022/03/29 04:17:22;;;;;;;33.83;20.13;;;;;;;5.43;100.00;100411.72;5073500;28;20181;-78
2022/03/29 04:19:47;;;;;;;41.83;21.17;;;;;;;5.42;100.00;100397.34;5073574;28;20206;-77
2022/03/29 04:22:13;;;;;;;45.30;23.23;;;;;;;5.42;100.00;100408.19;5073188;28;20573;-77
2022/03/29 04:24:39;;;;;;;36.10;20.80;;;;;;;5.38;100.00;100402.53;5073491;28;20653;-77
2022/03/29 04:27:05;;;;;;;37.83;20.73;;;;;;;5.40;100.00;100401.44;5073185;28;20229;-76
2022/03/29 04:29:30;;;;;;;36.63;18.63;;;;;;;5.36;100.00;100399.28;5073733;28;20669;-80
2022/03/29 04:31:56;;;;;;;36.43;18.87;;;;;;;5.34;100.00;100401.44;5072132;28;20270;-71
2022/03/29 04:34:21;;;;;;;47.17;20.60;;;;;;;5.30;100.00;100397.66;5073295;28;20645;-75
2022/03/29 04:36:47;;;;;;;37.90;19.43;;;;;;;5.28;100.00;100366.53;5073216;28;20266;-76
2022/03/29 04:39:12;;;;;;;31.37;19.10;;;;;;;5.28;100.00;100375.47;5073233;28;20190;-72
2022/03/29 04:41:39;;;;;;;48.43;23.57;;;;;;;5.24;100.00;100374.41;5071860;28;20174;-76
2022/03/29 04:44:04;;;;;;;50.77;23.77;;;;;;;5.28;100.00;100382.78;5073056;28;20345;-78
2022/03/29 04:46:30;;;;;;;34.63;19.07;;;;;;;5.26;100.00;100366.00;5072908;28;20524;-82
2022/03/29 04:48:55;;;;;;;46.73;22.97;;;;;;;5.24;100.00;100360.88;5073005;28;20196;-73
2022/03/29 04:51:20;;;;;;;41.87;21.63;;;;;;;5.27;100.00;100375.75;5073214;28;20555;-72
2022/03/29 04:53:46;;;;;;;45.50;22.27;;;;;;;5.28;100.00;100375.47;5072964;28;20643;-78
2022/03/29 04:56:12;;;;;;;40.37;22.10;;;;;;;5.26;100.00;100383.06;5073175;28;20235;-71
2022/03/29 04:58:37;;;;;;;39.20;22.17;;;;;;;5.27;100.00;100354.91;5072721;28;20235;-77
2022/03/29 05:01:04;;;;;;;49.53;22.77;;;;;;;5.31;100.00;100353.25;5072751;28;20222;-80
2022/03/29 05:03:31;;;;;;;36.00;19.87;;;;;;;5.34;100.00;100365.41;5072794;28;20171;-80
2022/03/29 05:05:57;;;;;;;36.83;19.70;;;;;;;5.31;100.00;100357.84;5072951;28;20190;-82
2022/03/29 05:08:22;;;;;;;35.00;18.67;;;;;;;5.30;100.00;100357.03;5072533;28;20183;-75
2022/03/29 05:10:47;;;;;;;41.57;20.83;;;;;;;5.32;100.00;100354.06;5072719;28;20175;-78
2022/03/29 05:13:15;;;;;;;31.30;18.87;;;;;;;5.31;100.00;100350.53;5072522;28;20599;-79
2022/03/29 05:15:40;;;;;;;39.43;20.03;;;;;;;5.30;100.00;100356.22;5072306;28;20515;-73
2022/03/29 05:18:06;;;;;;;28.43;17.30;;;;;;;5.29;100.00;100354.63;5072411;28;20182;-73
2022/03/29 05:20:31;;;;;;;35.43;18.63;;;;;;;5.25;100.00;100353.56;5072320;28;20175;-74
2022/03/29 05:22:56;;;;;;;33.50;19.13;;;;;;;5.25;100.00;100356.25;5072037;28;20217;-76
2022/03/29 05:25:24;;;;;;;31.03;18.13;;;;;;;5.24;100.00;100352.75;5072311;28;20181;-76
2022/03/29 05:27:51;;;;;;;37.27;18.90;;;;;;;5.27;100.00;100359.50;5072066;28;20242;-71
2022/03/29 05:30:18;;;;;;;25.63;16.27;;;;;;;5.24;100.00;100352.75;5072005;28;20186;-72
2022/03/29 05:32:43;;;;;;;35.40;19.20;;;;;;;5.22;100.00;100357.63;5072251;28;20170;-77
2022/03/29 05:35:10;;;;;;;30.50;17.30;;;;;;;5.23;100.00;100356.53;5072026;28;20656;-75
2022/03/29 05:37:38;;;;;;;28.00;16.30;;;;;;;5.19;100.00;100343.81;5072178;28;20174;-75
2022/03/29 05:40:06;;;;;;;32.77;18.67;;;;;;;5.21;100.00;100364.16;5071921;28;20292;-73
2022/03/29 05:42:36;;;;;;;27.27;17.67;;;;;;;5.18;100.00;100356.56;5070641;28;20216;-73
2022/03/29 05:45:01;;;;;;;31.03;18.30;;;;;;;5.18;100.00;100364.66;5071664;28;20259;-71
2022/03/29 05:50:12;;;;;;;31.93;19.00;;;;;;;5.20;100.00;100364.41;5072138;28;20190;-77
2022/03/29 05:52:37;;;;;;;22.07;11.53;;;;;;;5.20;100.00;100365.19;5071565;28;20763;-73
2022/03/29 05:55:04;;;;;;;29.87;17.03;;;;;;;5.21;100.00;100361.44;5071733;28;20202;-74
2022/03/29 05:57:30;;;;;;;22.00;15.23;;;;;;;5.25;100.00;100369.81;5071673;28;20189;-75
2022/03/29 05:59:56;;;;;;;23.40;14.50;;;;;;;5.23;100.00;100367.38;5071692;28;20200;-72
2022/03/29 06:02:24;;;;;;;23.20;15.70;;;;;;;5.19;100.00;100368.19;5071633;28;20173;-74
2022/03/29 06:04:49;;;;;;;26.27;15.07;;;;;;;5.15;100.00;100362.53;5071442;28;20178;-75
2022/03/29 06:07:15;;;;;;;35.50;18.63;;;;;;;5.14;100.00;100363.63;5069941;28;20212;-79
2022/03/29 06:09:40;;;;;;;18.20;12.17;;;;;;;5.14;100.00;100373.63;5071585;28;20166;-77
2022/03/29 06:12:06;;;;;;;33.00;16.53;;;;;;;5.17;100.00;100363.06;5071496;28;20633;-74
2022/03/29 06:14:32;;;;;;;26.17;16.33;;;;;;;5.22;100.00;100368.47;5071665;28;20224;-72
2022/03/29 06:16:57;;;;;;;34.83;17.30;;;;;;;5.26;100.00;100376.84;5071266;28;20270;-76
2022/03/29 06:19:22;;;;;;;30.50;16.03;;;;;;;5.31;100.00;100371.41;5071390;28;20199;-75
2022/03/29 06:21:48;;;;;;;25.10;16.27;;;;;;;5.24;100.00;100374.41;5071248;28;20213;-79
2022/03/29 06:24:13;;;;;;;32.87;17.17;;;;;;;5.25;100.00;100372.50;5071154;28;20638;-77
2022/03/29 06:26:39;;;;;;;21.93;14.90;;;;;;;5.30;100.00;100362.47;5071040;28;20195;-77
2022/03/29 06:29:08;;;;;;;17.10;11.13;;;;;;;5.25;100.00;100384.16;5071059;28;20681;-76
2022/03/29 06:31:34;;;;;;;36.40;18.20;;;;;;;5.22;100.00;100378.50;5071171;28;20178;-76
2022/03/29 06:34:00;;;;;;;30.33;14.67;;;;;;;5.24;100.00;100385.25;5071101;28;20170;-77
2022/03/29 06:36:26;;;;;;;35.90;16.20;;;;;;;5.23;100.00;100386.34;5071202;28;20236;-76
2022/03/29 06:38:52;;;;;;;28.13;14.83;;;;;;;5.23;100.00;100383.63;5070925;28;20190;-76
2022/03/29 06:41:17;;;;;;;36.50;19.90;;;;;;;5.24;98.71;100381.72;5070935;28;20177;-77
2022/03/29 06:43:43;;;;;;;32.20;17.80;;;;;;;5.25;97.90;100383.34;5070920;28;20162;-77
2022/03/29 06:46:09;;;;;;;37.30;18.13;;;;;;;5.28;97.41;100383.59;5070790;28;20543;-77
2022/03/29 06:48:41;;;;;;;28.10;17.50;;;;;;;5.31;97.59;100384.94;5070637;28;20167;-77
2022/03/29 06:51:07;;;;;;;31.30;18.57;;;;;;;5.34;97.16;100385.19;5069405;28;20525;-77
2022/03/29 06:53:32;;;;;;;32.00;17.87;;;;;;;5.37;97.13;100384.66;5070764;28;20266;-76
2022/03/29 06:55:58;;;;;;;33.33;18.50;;;;;;;5.30;97.08;100380.59;5070203;28;20243;-77
2022/03/29 06:58:23;;;;;;;33.27;17.47;;;;;;;5.47;96.69;100385.66;5069382;28;20228;-78
2022/03/29 07:00:48;;;;;;;27.23;15.80;;;;;;;5.48;96.03;100387.28;5069449;28;20273;-77
2022/03/29 07:03:14;;;;;;;25.47;16.47;;;;;;;5.48;96.12;100387.28;5069272;28;20225;-77
2022/03/29 07:05:42;;;;;;;24.70;15.97;;;;;;;5.43;96.37;100377.28;5070679;28;20647;-76
2022/03/29 07:08:10;;;;;;;26.70;15.63;;;;;;;5.44;96.67;100376.22;5068159;28;20218;-78
2022/03/29 07:13:23;;;;;;;28.37;15.03;;;;;;;5.44;96.12;100376.22;5070529;28;20236;-76
2022/03/29 07:15:49;;;;;;;27.13;16.87;;;;;;;5.48;96.54;100376.44;5070733;28;20174;-77
2022/03/29 07:18:15;;;;;;;28.97;16.33;;;;;;;5.54;96.42;100369.94;5070416;28;20206;-77
2022/03/29 07:20:40;;;;;;;28.53;17.47;;;;;;;5.60;95.88;100369.63;5070549;28;20201;-77
2022/03/29 07:23:06;;;;;;;38.77;18.10;;;;;;;5.66;94.85;100362.28;5070445;28;20628;-77
2022/03/29 07:25:32;;;;;;;20.27;11.57;;;;;;;5.65;94.21;100377.72;5070435;28;20216;-75
2022/03/29 07:27:58;;;;;;;25.13;14.83;;;;;;;5.67;94.07;100362.00;5070249;28;20210;-77
2022/03/29 07:30:24;;;;;;;34.83;19.03;;;;;;;5.64;93.83;100356.31;5070479;28;20170;-77
2022/03/29 07:32:54;;;;;;;24.97;12.47;;;;;;;5.67;93.37;100359.28;5070487;28;20178;-76
2022/03/29 07:35:21;;;;;;;24.10;17.17;;;;;;;5.72;92.94;100360.34;5070546;28;20232;-82
2022/03/29 07:37:47;;;;;;;32.03;18.67;;;;;;;5.71;92.19;100366.84;5070336;28;20193;-82
2022/03/29 07:40:16;;;;;;;32.10;16.70;;;;;;;5.66;92.41;100354.97;5070074;28;20674;-80
2022/03/29 07:42:41;;;;;;;38.07;19.40;;;;;;;5.73;93.05;100356.53;5070201;28;20630;-80
2022/03/29 07:45:11;;;;;;;26.30;14.47;;;;;;;5.72;92.60;100361.13;5070507;28;20181;-71
2022/03/29 07:47:37;;;;;;;31.40;17.43;;;;;;;5.73;92.74;100346.50;5070632;28;20194;-71
2022/03/29 07:50:06;;;;;;;29.37;16.80;;;;;;;5.76;92.92;100355.97;5073264;28;20572;-71
2022/03/29 07:52:36;;;;;;;29.97;15.93;;;;;;;5.77;93.46;100352.16;5071937;28;20214;-71
2022/03/29 07:55:03;;;;;;;31.80;17.83;;;;;;;5.83;93.71;100353.75;5070539;28;20707;-73
2022/03/29 07:57:28;;;;;;;39.20;19.27;;;;;;;5.78;92.84;100351.88;5070336;28;20163;-72
2022/03/29 07:59:53;;;;;;;35.23;18.87;;;;;;;5.79;92.92;100339.97;5070162;28;20171;-71
2022/03/29 08:02:19;;;;;;;36.97;18.93;;;;;;;5.83;92.84;100353.75;5070060;28;20190;-72
2022/03/29 08:04:44;;;;;;;29.83;17.50;;;;;;;5.92;92.80;100355.59;5070163;28;20163;-72
2022/03/29 08:07:10;;;;;;;41.00;21.07;;;;;;;5.97;92.42;100342.03;5071730;28;20206;-72
2022/03/29 08:09:35;;;;;;;34.10;19.67;;;;;;;5.85;91.95;100341.53;5073982;28;20175;-75
2022/03/29 08:12:00;;;;;;;36.30;20.40;;;;;;;5.83;91.61;100332.06;5073723;28;20607;-74
2022/03/29 08:14:26;;;;;;;38.73;18.77;;;;;;;6.03;91.30;100347.41;5074004;28;20185;-71
2022/03/29 08:16:53;;;;;;;26.43;17.17;;;;;;;6.10;91.09;100335.13;5073416;28;20766;-71
2022/03/29 08:19:19;;;;;;;35.30;19.50;;;;;;;5.97;90.90;100338.50;5073413;28;20535;-72
2022/03/29 08:21:50;;;;;;;47.30;22.00;;;;;;;6.00;90.85;100337.94;5073323;28;20178;-73
2022/03/29 08:24:18;;;;;;;43.43;19.60;;;;;;;6.09;90.92;100319.16;5073485;28;20193;-73
2022/03/29 08:26:45;;;;;;;35.80;19.03;;;;;;;6.14;90.21;100329.94;5073001;28;20281;-77
2022/03/29 08:29:12;;;;;;;45.53;21.37;;;;;;;6.16;90.76;100330.47;5072860;28;20183;-78
2022/03/29 08:31:37;;;;;;;34.00;18.40;;;;;;;6.18;89.93;100331.81;5072943;28;20182;-75
2022/03/29 08:34:03;;;;;;;41.27;21.80;;;;;;;6.18;89.72;100333.69;5072941;28;20179;-76
2022/03/29 08:36:28;;;;;;;28.40;15.70;;;;;;;6.18;89.60;100326.38;5071562;28;20277;-72
2022/03/29 08:38:53;;;;;;;39.10;21.13;;;;;;;6.03;89.64;100325.69;5071825;28;20490;-77
2022/03/29 08:41:21;;;;;;;39.43;17.70;;;;;;;6.06;88.46;100317.00;5072586;28;20205;-76
2022/03/29 08:43:47;;;;;;;32.87;20.17;;;;;;;6.06;88.10;100327.84;5072747;28;20190;-72
2022/03/29 08:46:12;;;;;;;40.23;19.97;;;;;;;6.16;88.40;100334.00;5072614;28;20174;-72
2022/03/29 08:48:38;;;;;;;29.27;18.87;;;;;;;6.21;87.72;100328.50;5072380;28;20185;-76
2022/03/29 08:51:05;;;;;;;36.23;18.63;;;;;;;6.28;87.20;100324.69;5072539;28;20224;-73
2022/03/29 08:53:30;;;;;;;38.47;20.00;;;;;;;6.22;86.53;100323.91;5072233;28;20171;-77
2022/03/29 08:55:56;;;;;;;37.67;20.93;;;;;;;6.18;86.46;100320.94;5072439;28;20613;-75
2022/03/29 08:58:23;;;;;;;26.20;16.37;;;;;;;6.12;86.36;100322.09;5072126;28;20542;-73
2022/03/29 09:00:49;;;;;;;19.87;13.93;;;;;;;6.07;87.05;100315.91;5072469;28;20642;-73
2022/03/29 09:03:16;;;;;;;35.00;19.77;;;;;;;6.11;87.67;100315.06;5072647;28;20300;-77
2022/03/29 09:05:42;;;;;;;27.07;13.87;;;;;;;6.08;87.59;100321.06;5072269;28;20177;-72
2022/03/29 09:08:13;;;;;;;49.03;20.33;;;;;;;6.08;87.90;100317.53;5071873;28;20203;-72
2022/03/29 09:10:44;;;;;;;43.60;20.87;;;;;;;6.14;88.19;100316.38;5072221;28;20253;-76
2022/03/29 09:13:27;;;;;;;34.83;19.40;;;;;;;6.26;89.02;100312.22;5072261;28;20225;-71
2022/03/29 09:15:55;;;;;;;27.27;17.07;;;;;;;6.26;88.34;100316.81;5072091;28;20210;-75
2022/03/29 09:18:21;;;;;;;28.47;16.47;;;;;;;6.17;87.71;100315.81;5071325;28;20186;-74
2022/03/29 09:20:47;;;;;;;47.17;21.93;;;;;;;6.25;88.69;100316.00;5071950;28;20684;-74
2022/03/29 09:23:18;;;;;;;29.40;14.77;;;;;;;6.34;88.22;100318.91;5071937;28;20202;-76
2022/03/29 09:25:49;;;;;;;48.77;24.43;;;;;;;6.39;87.72;100316.16;5071926;28;20175;-77
2022/03/29 09:28:17;;;;;;;34.77;18.97;;;;;;;6.52;86.96;100304.63;5070258;28;20206;-75
2022/03/29 09:30:50;;;;;;;37.63;16.63;;;;;;;6.51;86.17;100308.44;5071915;28;20186;-73
2022/03/29 09:33:27;;;;;;;52.80;23.50;;;;;;;6.44;86.67;100305.25;5067264;28;20183;-73
2022/03/29 09:36:07;;;;;;;44.17;21.63;;;;;;;6.52;86.27;100306.53;5071929;28;20174;-73
2022/03/29 09:38:36;;;;;;;40.87;19.30;;;;;;;6.69;86.88;100308.78;5069693;28;20178;-73
2022/03/29 09:41:03;;;;;;;47.87;21.93;;;;;;;6.62;85.09;100298.25;5070591;28;20202;-76
2022/03/29 09:43:29;;;;;;;39.47;19.77;;;;;;;6.66;85.21;100288.47;5069658;28;20179;-72
2022/03/29 09:45:59;;;;;;;38.00;19.10;;;;;;;6.69;85.41;100292.50;5061309;28;20243;-76
2022/03/29 09:48:32;;;;;;;37.70;18.83;;;;;;;6.79;85.08;100292.34;5065399;28;20202;-77
2022/03/29 09:51:14;;;;;;;38.73;21.00;;;;;;;6.72;84.49;100289.19;5071319;28;20167;-76
2022/03/29 09:53:51;;;;;;;17.47;10.53;;;;;;;6.72;84.92;100286.47;5066893;28;20182;-76
2022/03/29 09:56:20;;;;;;;26.37;14.73;;;;;;;6.74;85.79;100300.56;5051155;28;20170;-73
2022/03/29 09:58:46;;;;;;;15.40;9.03;;;;;;;6.74;85.33;100285.09;5051022;28;20167;-76
2022/03/29 10:01:23;;;;;;;13.30;7.07;;;;;;;6.69;84.95;100292.50;5058798;28;20254;-76
2022/03/29 10:03:51;;;;;;;26.43;14.67;;;;;;;6.71;84.99;100282.97;5066203;28;20178;-73
2022/03/29 10:06:17;;;;;;;22.63;14.43;;;;;;;6.75;84.00;100285.91;5066781;28;20265;-72
2022/03/29 10:11:33;;;;;;;27.77;17.73;;;;;;;7.03;82.74;100289.63;5061925;28;20210;-77
2022/03/29 10:14:00;;;;;;;35.03;17.97;;;;;;;7.18;82.11;100294.06;5070749;28;20170;-77
2022/03/29 10:16:27;;;;;;;27.37;17.47;;;;;;;7.24;81.15;100292.91;5069697;28;20182;-73
2022/03/29 10:18:54;;;;;;;24.83;15.67;;;;;;;7.38;81.21;100288.34;5070685;28;20175;-72
2022/03/29 10:21:20;;;;;;;13.77;11.67;;;;;;;7.32;80.75;100284.06;5068010;28;20241;-77
2022/03/29 10:23:49;;;;;;;30.13;17.13;;;;;;;7.38;81.43;100285.63;5069729;28;20193;-76
2022/03/29 10:26:17;;;;;;;19.30;14.00;;;;;;;7.31;81.39;100283.28;5062907;28;20254;-75
2022/03/29 10:28:45;;;;;;;21.63;15.73;;;;;;;7.34;81.40;100292.75;5070772;28;20266;-73
2022/03/29 10:31:33;;;;;;;34.33;18.10;;;;;;;7.38;81.29;100266.63;5070309;28;20170;-74
2022/03/29 10:34:27;;;;;;;29.03;14.17;;;;;;;7.40;81.43;100272.56;5071030;28;20171;-72
2022/03/29 10:37:16;;;;;;;21.37;14.17;;;;;;;7.38;80.20;100267.41;5070857;28;20163;-71
2022/03/29 10:39:50;;;;;;;10.60;7.67;;;;;;;7.44;80.09;100259.97;5070768;28;20261;-72
2022/03/29 10:42:32;;;;;;;20.27;13.50;;;;;;;7.42;80.96;100265.72;5070919;28;20169;-75
2022/03/29 10:45:06;;;;;;;11.13;9.80;;;;;;;7.38;79.90;100258.47;5070597;28;20197;-76
2022/03/29 10:47:32;;;;;;;26.50;18.67;;;;;;;7.43;80.62;100250.22;5070404;28;20209;-75
2022/03/29 10:49:58;;;;;;;25.27;15.77;;;;;;;7.49;80.11;100259.09;5070793;28;20178;-73
2022/03/29 10:52:24;;;;;;;24.80;15.73;;;;;;;7.46;79.86;100239.56;5070836;28;20166;-72
2022/03/29 10:54:50;;;;;;;27.43;13.53;;;;;;;7.51;79.58;100252.25;5070730;28;20163;-78
2022/03/29 10:57:20;;;;;;;26.83;16.77;;;;;;;7.65;80.49;100244.16;5070587;28;20209;-74
2022/03/29 11:00:17;;;;;;;22.73;13.37;;;;;;;7.96;79.96;100260.78;5070688;28;20231;-74
2022/03/29 11:03:07;;;;;;;25.77;13.67;;;;;;;7.85;78.14;100243.03;5070632;28;20826;-80
2022/03/29 11:05:33;;;;;;;23.90;14.50;;;;;;;7.80;77.64;100229.50;5070760;28;20174;-73
2022/03/29 11:08:11;;;;;;;20.60;14.20;;;;;;;7.85;77.79;100237.59;5070369;28;20650;-74
2022/03/29 11:10:44;;;;;;;26.77;18.23;;;;;;;7.97;77.79;100255.06;5070689;28;20628;-76
2022/03/29 11:13:30;;;;;;;35.30;20.77;;;;;;;8.16;77.25;100235.13;5070620;28;20167;-72
2022/03/29 11:16:02;;;;;;;27.27;18.37;;;;;;;8.15;76.26;100237.03;5070704;28;20177;-75
2022/03/29 11:18:38;;;;;;;15.80;11.10;;;;;;;8.27;76.19;100229.19;5070441;28;20163;-74
2022/03/29 11:21:05;;;;;;;33.23;21.03;;;;;;;8.44;75.83;100217.75;5070334;28;20180;-70
2022/03/29 11:23:33;;;;;;;31.13;15.77;;;;;;;8.53;75.09;100229.53;5069181;28;20190;-75